NORTHERN QUEENS  -  Heat Advisory Heat Advisory     Flash Flood Watch Flash Flood Watch     Rip Current Statement Rip Current Statement        SOUTHERN QUEENS  -  Heat Advisory Heat Advisory     Flash Flood Watch Flash Flood Watch     Rip Current Statement Rip Current Statement        NORTHERN NASSAU  -  Flash Flood Watch Flash Flood Watch     Rip Current Statement Rip Current Statement        SOUTHERN NASSAU  -  Flash Flood Watch Flash Flood Watch     Rip Current Statement Rip Current Statement        NORTHEAST SUFFOLK  -  Rip Current Statement Rip Current Statement        NORTHWEST SUFFOLK  -  Rip Current Statement Rip Current Statement        SOUTHEAST SUFFOLK  -  Rip Current Statement Rip Current Statement        SOUTHWEST SUFFOLK  -  Rip Current Statement Rip Current Statement      

Active alerts

Northern Queens
  Details for Northern Queens Heat Advisory  +2 additional alerts
Southern Queens
  Details for Southern Queens Heat Advisory  +2 additional alerts
Northern Nassau
  Details for Northern Nassau Flash Flood Watch  +1 additional alert
Southern Nassau
  Details for Southern Nassau Flash Flood Watch  +1 additional alert
Northwest Suffolk
  Details for Northwest Suffolk Rip Current Statement
Southwest Suffolk
  Details for Southwest Suffolk Rip Current Statement
Northeast Suffolk
  Details for Northeast Suffolk Rip Current Statement
Southeast Suffolk
  Details for Southeast Suffolk Rip Current Statement


WXM80 ListenWXM80 Stop

You find our weather info also at:

UK Metoffice

WeatherCloud

Weather Underground

Northeastern Weather Network

AWEKAS

Citizen Weather Observer Program (CWOP)

HAMweather, WeatherForYou, PWS Weather


Weather Underground History page Text

Daily Summary for May 26, 2016 Units:  English    Metric   Both
« Previous Day
Next Day »
Daily Weekly Monthly Yearly Custom
  High: Low: Average:
Temperature: 90.0 °F 62.5 °F 76.2 °F
Dew Point: 65.2 °F 52.6 °F 57.8 °F
Humidity: 79 % 36 % 55 %
Wind Speed: 4.5 mph 0.0 mph 1.4 mph
Wind Gust: 11.5 mph - -
Wind:- - South
Pressure: 30.09 in 30.00 in -
Precipitation: 0.00 in    
Historical Graphs
 
 
Tabular Data for May 26, 2016
Time Temperature Dew Point Pressure Wind Wind Speed Wind Gust Humidity Rainfall Rate (Hourly)
00:01 69.5 °F 53.6 °F 30.02 in SSW 0.2 mph 1.2 mph 57 % 0.00 in
00:06 69.3 °F 53.4 °F 30.02 in SW 1.1 mph 2.0 mph 57 % 0.00 in
00:11 69.2 °F 53.3 °F 30.02 in SW 0.5 mph 2.3 mph 57 % 0.00 in
00:16 69.1 °F 53.2 °F 30.01 in SW 0.4 mph 2.3 mph 57 % 0.00 in
00:21 68.9 °F 52.6 °F 30.02 in SW 1.0 mph 2.3 mph 56 % 0.00 in
00:27 68.9 °F 53.0 °F 30.02 in SW 1.5 mph 3.5 mph 57 % 0.00 in
00:32 68.8 °F 52.9 °F 30.02 in SW 1.0 mph 2.3 mph 57 % 0.00 in
00:37 68.8 °F 53.4 °F 30.02 in SW 1.4 mph 2.3 mph 58 % 0.00 in
00:42 68.8 °F 52.9 °F 30.01 in SW 1.8 mph 3.0 mph 57 % 0.00 in
00:47 68.8 °F 52.9 °F 30.01 in SW 1.3 mph 2.3 mph 57 % 0.00 in
00:52 68.8 °F 52.9 °F 30.01 in Calm     57 % 0.00 in
01:02 68.8 °F 53.4 °F 30.01 in SW 0.8 mph 2.3 mph 58 % 0.00 in
01:07 68.8 °F 52.9 °F 30.01 in SW 0.5 mph 2.3 mph 57 % 0.00 in
01:12 68.8 °F 52.9 °F 30.01 in SW 1.1 mph 2.3 mph 57 % 0.00 in
01:18 68.8 °F 52.9 °F 30.02 in SW 0.4 mph 1.2 mph 57 % 0.00 in
01:23 68.9 °F 52.6 °F 30.02 in WSW 0.2 mph 3.5 mph 56 % 0.00 in
01:28 69.0 °F 52.6 °F 30.02 in SW 0.6 mph 2.3 mph 56 % 0.00 in
01:33 69.0 °F 53.1 °F 30.02 in SW 0.7 mph 1.2 mph 57 % 0.00 in
01:38 69.0 °F 53.1 °F 30.02 in SW 1.0 mph 4.0 mph 57 % 0.00 in
01:43 69.0 °F 53.1 °F 30.02 in SW 0.5 mph 2.3 mph 57 % 0.00 in
01:48 69.1 °F 53.2 °F 30.02 in SW 0.8 mph 2.3 mph 57 % 0.00 in
01:53 69.2 °F 52.8 °F 30.01 in WSW 0.8 mph 3.5 mph 56 % 0.00 in
01:58 69.2 °F 52.8 °F 30.01 in WSW 1.6 mph 3.5 mph 56 % 0.00 in
02:04 69.3 °F 52.9 °F 30.02 in SSW 2.5 mph 3.5 mph 56 % 0.00 in
02:14 69.5 °F 53.6 °F 30.02 in SW 2.2 mph 3.5 mph 57 % 0.00 in
02:19 69.5 °F 53.1 °F 30.02 in SW 2.5 mph 4.6 mph 56 % 0.00 in
02:24 69.6 °F 53.2 °F 30.02 in SW 2.6 mph 3.5 mph 56 % 0.00 in
02:29 69.7 °F 53.3 °F 30.02 in WSW 2.3 mph 3.5 mph 56 % 0.00 in
02:34 69.7 °F 53.3 °F 30.02 in SW 1.6 mph 3.5 mph 56 % 0.00 in
02:39 69.8 °F 53.4 °F 30.02 in WSW 1.1 mph 2.3 mph 56 % 0.00 in
02:44 69.8 °F 53.9 °F 30.02 in WSW 1.7 mph 3.5 mph 57 % 0.00 in
02:49 69.8 °F 53.9 °F 30.02 in SW 1.8 mph 3.5 mph 57 % 0.00 in
03:00 69.7 °F 53.3 °F 30.02 in WSW 3.2 mph 4.6 mph 56 % 0.00 in
03:05 69.7 °F 53.8 °F 30.03 in WSW 2.8 mph 4.6 mph 57 % 0.00 in
03:10 69.8 °F 53.9 °F 30.03 in WSW 3.3 mph 4.6 mph 57 % 0.00 in
03:15 69.8 °F 53.9 °F 30.03 in SW 1.8 mph 4.0 mph 57 % 0.00 in
03:20 69.9 °F 54.0 °F 30.03 in WSW 1.6 mph 3.5 mph 57 % 0.00 in
03:25 69.9 °F 54.0 °F 30.03 in SW 1.9 mph 3.5 mph 57 % 0.00 in
03:30 69.9 °F 54.0 °F 30.03 in WSW 1.1 mph 3.5 mph 57 % 0.00 in
03:35 69.9 °F 54.4 °F 30.04 in West 1.7 mph 3.5 mph 58 % 0.00 in
03:40 69.9 °F 54.0 °F 30.04 in WSW 0.4 mph 2.3 mph 57 % 0.00 in
03:46 69.8 °F 54.8 °F 30.04 in North 1.0 mph 3.5 mph 59 % 0.00 in
03:56 69.5 °F 56.3 °F 30.04 in Calm     63 % 0.00 in
04:01 69.1 °F 56.4 °F 30.04 in Calm   1.2 mph 64 % 0.00 in
04:06 68.6 °F 56.4 °F 30.04 in North 0.1 mph 1.2 mph 65 % 0.00 in
04:16 67.7 °F 56.8 °F 30.04 in Calm     68 % 0.00 in
04:21 67.2 °F 56.7 °F 30.04 in Calm     69 % 0.00 in
04:26 66.8 °F 56.3 °F 30.05 in Calm     69 % 0.00 in
04:31 66.4 °F 56.3 °F 30.05 in Calm     70 % 0.00 in
04:37 65.9 °F 56.6 °F 30.05 in Calm     72 % 0.00 in
04:42 65.4 °F 56.1 °F 30.05 in Calm     72 % 0.00 in
04:47 65.0 °F 56.5 °F 30.05 in Calm   1.2 mph 74 % 0.00 in
04:52 64.7 °F 56.2 °F 30.05 in North 0.1 mph 1.2 mph 74 % 0.00 in
04:57 64.4 °F 56.3 °F 30.05 in Calm   1.2 mph 75 % 0.00 in
05:02 64.2 °F 56.1 °F 30.05 in Calm     75 % 0.00 in
05:07 63.9 °F 55.8 °F 30.05 in Calm     75 % 0.00 in
05:12 63.7 °F 56.0 °F 30.05 in Calm     76 % 0.00 in
05:17 63.5 °F 55.8 °F 30.05 in North 0.3 mph 1.2 mph 76 % 0.00 in
05:28 63.0 °F 55.7 °F 30.05 in Calm   1.2 mph 77 % 0.00 in
05:33 62.8 °F 55.5 °F 30.05 in North 0.6 mph 1.2 mph 77 % 0.00 in
05:43 62.6 °F 55.3 °F 30.05 in North 1.3 mph 2.3 mph 77 % 0.00 in
05:48 62.6 °F 55.6 °F 30.05 in North 0.7 mph 1.2 mph 78 % 0.00 in
05:53 62.5 °F 55.5 °F 30.06 in North 1.0 mph 2.3 mph 78 % 0.00 in
06:03 62.7 °F 55.7 °F 30.06 in North 1.1 mph 2.3 mph 78 % 0.00 in
06:13 62.9 °F 55.9 °F 30.07 in WSW 1.9 mph 3.5 mph 78 % 0.00 in
06:19 63.1 °F 56.1 °F 30.06 in WSW 2.3 mph 4.0 mph 78 % 0.00 in
06:24 63.4 °F 56.1 °F 30.07 in SW 2.0 mph 3.5 mph 77 % 0.00 in
06:29 63.8 °F 55.7 °F 30.07 in WSW 3.4 mph 5.8 mph 75 % 0.00 in
06:34 64.2 °F 55.7 °F 30.07 in Calm   1.2 mph 74 % 0.00 in
06:39 64.7 °F 57.3 °F 30.07 in Calm     77 % 0.00 in
06:49 65.2 °F 57.1 °F 30.07 in Calm     75 % 0.00 in
06:54 65.7 °F 59.0 °F 30.07 in WSW 0.2 mph 1.2 mph 79 % 0.00 in
06:59 66.0 °F 59.3 °F 30.07 in Calm     79 % 0.00 in
07:04 66.3 °F 59.2 °F 30.08 in Calm     78 % 0.00 in
07:10 66.7 °F 59.6 °F 30.08 in Calm     78 % 0.00 in
07:15 67.1 °F 60.4 °F 30.08 in WSW 0.2 mph 1.0 mph 79 % 0.00 in
07:20 67.7 °F 60.6 °F 30.08 in Calm     78 % 0.00 in
07:25 68.1 °F 59.9 °F 30.08 in Calm     75 % 0.00 in
07:30 68.7 °F 60.8 °F 30.08 in Calm     76 % 0.00 in
07:35 69.4 °F 60.8 °F 30.09 in WSW 0.9 mph 1.2 mph 74 % 0.00 in
07:40 69.7 °F 60.7 °F 30.08 in WSW 0.9 mph 2.3 mph 73 % 0.00 in
07:45 69.8 °F 60.4 °F 30.09 in WNW 1.0 mph 2.3 mph 72 % 0.00 in
07:50 69.8 °F 60.4 °F 30.09 in WNW 0.6 mph 1.2 mph 72 % 0.00 in
07:55 69.9 °F 60.5 °F 30.09 in WNW 0.1 mph 1.2 mph 72 % 0.00 in
08:00 70.0 °F 60.6 °F 30.09 in WNW 0.5 mph 2.3 mph 72 % 0.00 in
08:05 70.2 °F 61.1 °F 30.09 in WNW 1.1 mph 2.3 mph 73 % 0.00 in
08:11 70.4 °F 60.5 °F 30.09 in NNE 1.5 mph 2.3 mph 71 % 0.00 in
08:16 70.7 °F 60.4 °F 30.09 in NNE 0.6 mph 2.3 mph 70 % 0.00 in
08:21 70.8 °F 59.3 °F 30.09 in NNE 1.1 mph 2.3 mph 67 % 0.00 in
08:26 70.9 °F 60.2 °F 30.09 in NNE 0.9 mph 2.3 mph 69 % 0.00 in
08:31 70.9 °F 59.8 °F 30.09 in NNE 1.1 mph 2.3 mph 68 % 0.00 in
08:36 70.7 °F 59.6 °F 30.08 in NNE 0.6 mph 2.3 mph 68 % 0.00 in
08:41 70.6 °F 60.3 °F 30.08 in NNE 0.6 mph 1.2 mph 70 % 0.00 in
08:46 70.6 °F 59.5 °F 30.08 in NNE 0.4 mph 2.3 mph 68 % 0.00 in
08:51 70.7 °F 59.6 °F 30.08 in NNE 1.0 mph 2.3 mph 68 % 0.00 in
08:57 70.8 °F 59.3 °F 30.08 in NNE 1.6 mph 3.5 mph 67 % 0.00 in
09:02 70.9 °F 59.8 °F 30.08 in NNE 1.1 mph 3.5 mph 68 % 0.00 in
09:07 70.9 °F 59.4 °F 30.08 in NNE 1.4 mph 3.5 mph 67 % 0.00 in
09:12 70.7 °F 58.8 °F 30.08 in NNE 1.5 mph 3.5 mph 66 % 0.00 in
09:17 70.6 °F 58.3 °F 30.08 in NNE 0.3 mph 2.3 mph 65 % 0.00 in
09:22 70.6 °F 58.7 °F 30.08 in NNE 0.5 mph 1.2 mph 66 % 0.00 in
09:27 70.8 °F 59.7 °F 30.08 in NNE 0.9 mph 2.3 mph 68 % 0.00 in
09:32 71.2 °F 60.1 °F 30.08 in NNE 0.1 mph 1.2 mph 68 % 0.00 in
09:37 71.8 °F 61.1 °F 30.08 in NNE 0.9 mph 2.3 mph 69 % 0.00 in
09:42 72.5 °F 61.7 °F 30.07 in NNE 1.8 mph 3.5 mph 69 % 0.00 in
09:48 73.3 °F 61.3 °F 30.07 in NNE 1.4 mph 2.3 mph 66 % 0.00 in
09:53 74.2 °F 61.2 °F 30.07 in NNE 0.6 mph 2.3 mph 64 % 0.00 in
09:58 75.3 °F 61.8 °F 30.07 in NNE 1.1 mph 3.0 mph 63 % 0.00 in
10:08 76.8 °F 61.9 °F 30.07 in NE 1.7 mph 3.5 mph 60 % 0.00 in
10:13 77.6 °F 60.2 °F 30.07 in ENE 2.5 mph 3.5 mph 55 % 0.00 in
10:18 78.1 °F 61.1 °F 30.07 in ENE 1.5 mph 2.3 mph 56 % 0.00 in
10:23 78.7 °F 62.2 °F 30.07 in ENE 0.8 mph 2.3 mph 57 % 0.00 in
10:28 79.6 °F 62.0 °F 30.07 in ENE 1.0 mph 2.3 mph 55 % 0.00 in
10:33 80.4 °F 61.7 °F 30.07 in ENE 1.6 mph 3.5 mph 53 % 0.00 in
10:39 80.7 °F 63.5 °F 30.07 in ENE 0.6 mph 2.3 mph 56 % 0.00 in
10:44 81.1 °F 62.3 °F 30.07 in NE 1.1 mph 2.3 mph 53 % 0.00 in
10:49 81.7 °F 62.4 °F 30.07 in NNE 0.7 mph 3.5 mph 52 % 0.00 in
10:54 82.3 °F 63.5 °F 30.07 in NNE 1.4 mph 3.5 mph 53 % 0.00 in
10:59 82.9 °F 62.9 °F 30.06 in North 2.4 mph 3.5 mph 51 % 0.00 in
11:04 83.2 °F 60.9 °F 30.06 in NNE 0.7 mph 2.3 mph 47 % 0.00 in
11:09 83.7 °F 63.1 °F 30.06 in NNE 1.0 mph 3.0 mph 50 % 0.00 in
11:14 84.0 °F 62.2 °F 30.06 in NW 1.4 mph 2.3 mph 48 % 0.00 in
11:25 84.4 °F 59.5 °F 30.06 in North 2.1 mph 4.0 mph 43 % 0.00 in
11:30 84.7 °F 61.6 °F 30.06 in North 0.5 mph 3.5 mph 46 % 0.00 in
11:35 85.0 °F 60.6 °F 30.06 in North 1.6 mph 3.5 mph 44 % 0.00 in
11:40 85.1 °F 60.1 °F 30.06 in North 1.3 mph 4.0 mph 43 % 0.00 in
11:45 85.3 °F 58.9 °F 30.05 in WNW 2.9 mph 5.0 mph 41 % 0.00 in
11:50 85.4 °F 61.0 °F 30.05 in North 1.0 mph 3.5 mph 44 % 0.00 in
11:55 85.8 °F 60.7 °F 30.05 in North 1.0 mph 3.5 mph 43 % 0.00 in
12:00 85.9 °F 60.1 °F 30.06 in North 1.2 mph 2.3 mph 42 % 0.00 in
12:05 86.1 °F 62.9 °F 30.05 in North 0.7 mph 2.3 mph 46 % 0.00 in
12:10 86.2 °F 60.4 °F 30.05 in NNE 0.9 mph 3.5 mph 42 % 0.00 in
12:16 86.5 °F 62.0 °F 30.05 in North 2.9 mph 4.0 mph 44 % 0.00 in
12:21 86.7 °F 61.5 °F 30.05 in North 1.7 mph 3.5 mph 43 % 0.00 in
12:26 87.1 °F 62.5 °F 30.05 in NNE 1.9 mph 3.5 mph 44 % 0.00 in
12:31 87.6 °F 63.6 °F 30.05 in NNE 1.0 mph 2.3 mph 45 % 0.00 in
12:36 88.2 °F 62.2 °F 30.04 in NNE 2.1 mph 3.5 mph 42 % 0.00 in
12:41 88.7 °F 64.0 °F 30.04 in NNE 1.8 mph 3.5 mph 44 % 0.00 in
12:46 88.6 °F 61.2 °F 30.04 in ENE 1.3 mph 3.5 mph 40 % 0.00 in
12:51 88.4 °F 62.4 °F 30.04 in ENE 1.3 mph 2.3 mph 42 % 0.00 in
12:56 88.0 °F 61.3 °F 30.04 in ENE 1.7 mph 3.5 mph 41 % 0.00 in
13:01 87.8 °F 61.2 °F 30.04 in ENE 1.3 mph 3.5 mph 41 % 0.00 in
13:07 87.9 °F 63.3 °F 30.04 in NNE 0.4 mph 2.3 mph 44 % 0.00 in
13:12 87.9 °F 60.6 °F 30.04 in ENE 2.3 mph 3.5 mph 40 % 0.00 in
13:17 87.9 °F 62.6 °F 30.04 in ENE 1.9 mph 3.5 mph 43 % 0.00 in
13:22 87.9 °F 61.3 °F 30.04 in ENE 1.5 mph 3.5 mph 41 % 0.00 in
13:27 88.0 °F 63.4 °F 30.03 in ENE 1.4 mph 2.3 mph 44 % 0.00 in
13:32 87.5 °F 60.2 °F 30.03 in NE 2.6 mph 4.0 mph 40 % 0.00 in
13:37 87.5 °F 62.2 °F 30.03 in ENE 2.3 mph 4.0 mph 43 % 0.00 in
13:42 87.5 °F 62.9 °F 30.03 in NE 2.2 mph 3.5 mph 44 % 0.00 in
13:47 87.6 °F 62.3 °F 30.02 in ENE 3.6 mph 5.8 mph 43 % 0.00 in
13:52 87.1 °F 63.2 °F 30.02 in NNE 3.3 mph 6.9 mph 45 % 0.00 in
13:58 87.2 °F 62.6 °F 30.02 in NE 2.9 mph 3.5 mph 44 % 0.00 in
14:03 87.1 °F 61.9 °F 30.02 in ENE 3.2 mph 5.8 mph 43 % 0.00 in
14:08 87.0 °F 62.5 °F 30.02 in NNE 4.2 mph 5.8 mph 44 % 0.00 in
14:13 86.9 °F 63.0 °F 30.02 in ENE 3.6 mph 5.0 mph 45 % 0.00 in
14:18 86.4 °F 63.2 °F 30.02 in ENE 3.5 mph 4.6 mph 46 % 0.00 in
14:23 85.9 °F 63.9 °F 30.02 in NE 3.3 mph 4.6 mph 48 % 0.00 in
14:28 84.9 °F 61.8 °F 30.02 in ENE 1.9 mph 3.5 mph 46 % 0.00 in
14:33 84.3 °F 61.9 °F 30.02 in East 4.5 mph 5.0 mph 47 % 0.00 in
14:38 83.9 °F 62.1 °F 30.02 in ENE 3.5 mph 5.0 mph 48 % 0.00 in
14:44 83.6 °F 61.8 °F 30.02 in NE 1.1 mph 3.5 mph 48 % 0.00 in
14:49 83.5 °F 62.3 °F 30.02 in NNE 0.3 mph 2.3 mph 49 % 0.00 in
14:54 83.6 °F 61.8 °F 30.02 in NNE 1.7 mph 3.5 mph 48 % 0.00 in
14:59 83.7 °F 63.1 °F 30.02 in ENE 1.1 mph 3.5 mph 50 % 0.00 in
15:04 83.8 °F 64.8 °F 30.02 in NE 1.0 mph 2.3 mph 53 % 0.00 in
15:09 83.8 °F 63.2 °F 30.02 in ENE 2.6 mph 3.5 mph 50 % 0.00 in
15:14 83.6 °F 63.6 °F 30.02 in ENE 0.1 mph 1.2 mph 51 % 0.00 in
15:20 83.9 °F 64.4 °F 30.02 in ENE 1.3 mph 3.5 mph 52 % 0.00 in
15:25 84.2 °F 65.2 °F 30.01 in ENE 0.9 mph 2.3 mph 53 % 0.00 in
15:30 84.1 °F 64.6 °F 30.02 in Calm   1.2 mph 52 % 0.00 in
15:35 84.1 °F 64.0 °F 30.02 in North 2.4 mph 4.6 mph 51 % 0.00 in
15:45 83.9 °F 64.4 °F 30.01 in NE 0.2 mph 1.2 mph 52 % 0.00 in
15:50 84.1 °F 62.3 °F 30.01 in WSW 2.0 mph 6.0 mph 48 % 0.00 in
15:55 84.8 °F 59.8 °F 30.00 in SSW 2.8 mph 4.6 mph 43 % 0.00 in
16:00 85.8 °F 61.4 °F 30.01 in SW 2.8 mph 5.0 mph 44 % 0.00 in
16:05 86.7 °F 61.5 °F 30.01 in ESE 0.9 mph 3.5 mph 43 % 0.00 in
16:11 87.7 °F 60.4 °F 30.01 in South 2.2 mph 3.5 mph 40 % 0.00 in
16:16 88.5 °F 59.7 °F 30.01 in SSW 2.6 mph 5.8 mph 38 % 0.00 in
16:21 89.0 °F 60.8 °F 30.01 in SSW 1.5 mph 3.5 mph 39 % 0.00 in
16:26 89.5 °F 61.3 °F 30.01 in South 0.7 mph 2.3 mph 39 % 0.00 in
16:31 89.8 °F 60.8 °F 30.01 in SW 3.8 mph 11.5 mph 38 % 0.00 in
16:36 90.0 °F 59.5 °F 30.01 in East 0.6 mph 3.5 mph 36 % 0.00 in
16:41 90.0 °F 60.2 °F 30.01 in South 3.3 mph 8.1 mph 37 % 0.00 in
16:46 89.5 °F 60.5 °F 30.01 in SSE 1.5 mph 2.3 mph 38 % 0.00 in
16:51 89.2 °F 58.8 °F 30.00 in SSE 0.9 mph 3.5 mph 36 % 0.00 in
16:56 88.6 °F 58.2 °F 30.01 in South 3.0 mph 3.5 mph 36 % 0.00 in
17:02 88.3 °F 58.7 °F 30.00 in SE 1.7 mph 3.5 mph 37 % 0.00 in
17:07 87.9 °F 59.8 °F 30.01 in SSW 2.4 mph 5.8 mph 39 % 0.00 in
17:12 87.7 °F 58.9 °F 30.00 in SSE 3.6 mph 5.8 mph 38 % 0.00 in
17:17 87.1 °F 58.4 °F 30.00 in SE 1.7 mph 6.0 mph 38 % 0.00 in
17:22 86.7 °F 58.1 °F 30.00 in SSE 2.6 mph 5.8 mph 38 % 0.00 in
17:27 86.4 °F 57.0 °F 30.00 in SE 0.2 mph 3.0 mph 37 % 0.00 in
17:32 86.1 °F 58.2 °F 30.00 in SSW 2.1 mph 4.6 mph 39 % 0.00 in
17:37 85.7 °F 56.4 °F 30.00 in SSE 2.2 mph 4.6 mph 37 % 0.00 in
17:42 85.2 °F 56.7 °F 30.00 in SSW 1.2 mph 5.0 mph 38 % 0.00 in
17:47 84.9 °F 56.5 °F 30.00 in SSW 2.5 mph 3.5 mph 38 % 0.00 in
17:53 84.7 °F 56.3 °F 30.00 in SSW 1.8 mph 5.8 mph 38 % 0.00 in
17:58 84.5 °F 56.8 °F 30.00 in SSE 2.2 mph 4.6 mph 39 % 0.00 in
18:03 84.3 °F 55.9 °F 30.00 in SSW 2.7 mph 5.0 mph 38 % 0.00 in
18:08 84.1 °F 55.7 °F 30.00 in South 1.2 mph 2.3 mph 38 % 0.00 in
18:13 83.8 °F 54.7 °F 30.00 in SSW 2.4 mph 3.5 mph 37 % 0.00 in
18:18 83.6 °F 55.3 °F 30.00 in South 2.6 mph 5.0 mph 38 % 0.00 in
18:23 83.3 °F 54.3 °F 30.01 in SSW 0.8 mph 3.5 mph 37 % 0.00 in
18:28 83.0 °F 54.0 °F 30.01 in SSW 0.8 mph 3.5 mph 37 % 0.00 in
18:33 82.7 °F 54.5 °F 30.01 in SW 0.7 mph 2.3 mph 38 % 0.00 in
18:38 82.3 °F 54.2 °F 30.01 in SW 2.1 mph 3.0 mph 38 % 0.00 in
18:44 82.1 °F 54.0 °F 30.01 in South 0.9 mph 3.5 mph 38 % 0.00 in
18:49 81.7 °F 53.6 °F 30.01 in South 1.2 mph 3.5 mph 38 % 0.00 in
18:54 81.4 °F 54.1 °F 30.01 in SSE 2.6 mph 9.2 mph 39 % 0.00 in
18:59 81.1 °F 53.8 °F 30.00 in South 1.6 mph 3.5 mph 39 % 0.00 in
19:04 80.8 °F 54.2 °F 30.00 in NW 2.4 mph 6.0 mph 40 % 0.00 in
19:09 80.6 °F 54.7 °F 30.00 in SSW 1.3 mph 3.5 mph 41 % 0.00 in
19:14 80.3 °F 54.5 °F 30.00 in South 1.7 mph 4.0 mph 41 % 0.00 in
19:19 80.1 °F 54.9 °F 30.00 in SSW 1.3 mph 3.5 mph 42 % 0.00 in
19:29 79.8 °F 54.7 °F 30.00 in SSW 1.7 mph 3.5 mph 42 % 0.00 in
19:35 79.7 °F 55.2 °F 30.00 in SSW 2.0 mph 3.5 mph 43 % 0.00 in
19:40 79.4 °F 55.0 °F 30.00 in South 0.5 mph 3.5 mph 43 % 0.00 in
19:45 79.2 °F 54.8 °F 30.00 in SSE 0.8 mph 2.3 mph 43 % 0.00 in
19:50 78.9 °F 54.5 °F 30.00 in SSE 1.5 mph 4.0 mph 43 % 0.00 in
19:55 78.5 °F 54.1 °F 30.00 in SSW 1.7 mph 3.5 mph 43 % 0.00 in
20:00 78.2 °F 53.9 °F 30.00 in SW 1.7 mph 3.5 mph 43 % 0.00 in
20:05 77.9 °F 54.2 °F 30.00 in SW 2.3 mph 4.0 mph 44 % 0.00 in
20:10 77.7 °F 54.0 °F 30.00 in SW 1.4 mph 3.5 mph 44 % 0.00 in
20:15 77.5 °F 54.5 °F 30.00 in SSW 2.6 mph 3.5 mph 45 % 0.00 in
20:20 77.2 °F 54.2 °F 30.00 in SSW 1.7 mph 3.5 mph 45 % 0.00 in
20:26 76.9 °F 54.5 °F 30.00 in SSE 1.0 mph 2.3 mph 46 % 0.00 in
20:31 76.6 °F 54.3 °F 30.00 in SSW 2.8 mph 4.6 mph 46 % 0.00 in
20:36 76.3 °F 54.0 °F 30.00 in SW 1.3 mph 4.6 mph 46 % 0.00 in
20:41 76.1 °F 54.4 °F 30.00 in South 1.6 mph 5.0 mph 47 % 0.00 in
20:46 75.8 °F 54.1 °F 30.01 in SSE 1.1 mph 4.0 mph 47 % 0.00 in
20:51 75.6 °F 54.5 °F 30.01 in SSW 0.7 mph 3.5 mph 48 % 0.00 in
20:56 75.3 °F 54.3 °F 30.01 in South 1.7 mph 3.5 mph 48 % 0.00 in
21:01 75.1 °F 54.1 °F 30.01 in SSW 1.9 mph 3.5 mph 48 % 0.00 in
21:06 75.0 °F 54.0 °F 30.02 in SSW 1.4 mph 3.5 mph 48 % 0.00 in
21:11 74.8 °F 54.4 °F 30.02 in SSW 1.2 mph 3.0 mph 49 % 0.00 in
21:17 74.6 °F 54.2 °F 30.02 in WSW 1.7 mph 3.5 mph 49 % 0.00 in
21:22 74.4 °F 54.5 °F 30.02 in SSE 2.7 mph 4.6 mph 50 % 0.00 in
21:27 74.2 °F 54.9 °F 30.03 in SSW 1.6 mph 6.9 mph 51 % 0.00 in
21:32 74.0 °F 54.7 °F 30.02 in SSW 1.9 mph 3.5 mph 51 % 0.00 in
21:37 73.9 °F 54.6 °F 30.02 in SSW 2.1 mph 4.6 mph 51 % 0.00 in
21:42 73.7 °F 55.0 °F 30.02 in SW 2.3 mph 3.5 mph 52 % 0.00 in
21:47 73.6 °F 54.9 °F 30.02 in SSW 1.2 mph 3.5 mph 52 % 0.00 in
21:52 73.4 °F 55.2 °F 30.02 in SSW 2.1 mph 4.6 mph 53 % 0.00 in
21:57 73.3 °F 55.1 °F 30.02 in SW 2.5 mph 3.5 mph 53 % 0.00 in
22:02 73.1 °F 55.5 °F 30.03 in SSW 2.2 mph 3.5 mph 54 % 0.00 in
22:08 73.0 °F 55.4 °F 30.03 in South 1.4 mph 4.6 mph 54 % 0.00 in
22:13 72.8 °F 55.7 °F 30.03 in South 2.4 mph 4.0 mph 55 % 0.00 in
22:18 72.6 °F 55.5 °F 30.03 in SSW 0.8 mph 2.3 mph 55 % 0.00 in
22:23 72.4 °F 55.8 °F 30.03 in South 1.6 mph 3.5 mph 56 % 0.00 in
22:28 72.4 °F 55.8 °F 30.03 in SW 0.9 mph 3.0 mph 56 % 0.00 in
22:33 72.2 °F 56.1 °F 30.03 in SW 1.3 mph 3.5 mph 57 % 0.00 in
22:38 72.1 °F 56.0 °F 30.03 in SW 1.2 mph 3.5 mph 57 % 0.00 in
22:43 72.0 °F 56.4 °F 30.03 in SSW 2.2 mph 3.5 mph 58 % 0.00 in
22:48 71.8 °F 56.2 °F 30.03 in SSE 0.4 mph 4.6 mph 58 % 0.00 in
22:53 71.7 °F 56.6 °F 30.03 in SSE 0.6 mph 2.3 mph 59 % 0.00 in
22:59 71.6 °F 56.5 °F 30.03 in South 1.6 mph 2.3 mph 59 % 0.00 in
23:04 71.5 °F 56.9 °F 30.03 in West 1.5 mph 4.0 mph 60 % 0.00 in
23:09 71.4 °F 56.8 °F 30.03 in SSW 1.1 mph 4.6 mph 60 % 0.00 in
23:14 71.3 °F 57.2 °F 30.03 in SE 1.1 mph 5.8 mph 61 % 0.00 in
23:19 71.3 °F 57.6 °F 30.03 in SSW 3.0 mph 5.8 mph 62 % 0.00 in
23:24 71.2 °F 57.5 °F 30.03 in SW 0.7 mph 3.5 mph 62 % 0.00 in
23:29 71.1 °F 57.9 °F 30.03 in South 1.3 mph 3.5 mph 63 % 0.00 in
23:34 71.0 °F 57.8 °F 30.03 in SSE 1.8 mph 4.0 mph 63 % 0.00 in
23:39 71.0 °F 57.8 °F 30.03 in SSW 2.2 mph 3.5 mph 63 % 0.00 in
23:44 71.0 °F 57.8 °F 30.03 in SSE 1.0 mph 3.5 mph 63 % 0.00 in
23:50 70.9 °F 58.1 °F 30.03 in SE 0.4 mph 3.5 mph 64 % 0.00 in
23:55 70.9 °F 58.1 °F 30.03 in South 1.3 mph 2.3 mph 64 % 0.00 in
Crab Meadow Weather
Compliments of Weather Underground - 2.75 mb

Script developed by  Jim McMurry - jmcmurry@mwt.net Adapted for the template by  Wim van der Kuil - Leuven-Template.eu

Weather Terms: Outlook - A hazardous weather outlook is issued daily to indicate that a hazardous weather or hydrologic event may occur in the next several days. The outlook will include information about potential severe thunderstorms , heavy rain or flooding, winter weather, extremes of heat or cold, etc., that may develop over the next 7 days with an emphasis on the first 24 hours of the forecast. It is intended to provide information to those who need considerable lead time to prepare for the event.